GAP2823 RPLL-RPMD
Flight info
| Callsign | GAP2823 |
|---|---|
| Flight time | N/A |
| Altitude | 35000 |
| Route | IPATA2R IPATA B462 MASBA W9A BN W9 RIMAR RIMAR2R |
| Aircraft | A321/M-SDE3FGHIRWY/LB1 |
Departure
| Time | 2026-05-07 12:36 |
|---|---|
| Airport | Ninoy Aquino International Airport (RPLL) |
Arrival
| Time | N/A |
|---|---|
| Airport | Francisco Bangoy International Airport (RPMD) |
| Time | Latitude | Longitude | Altitude | Speed | Heading |
|---|---|---|---|---|---|
| 2026-05-07 12:23 | 14.50707 | 121.01171 | 69 ft | 0 kts | 330° |
| 2026-05-07 12:28 | 14.50705 | 121.01172 | 69 ft | 3 kts | 330° |
| 2026-05-07 12:28 | 14.50691 | 121.01182 | 59 ft | 2 kts | 311° |
| 2026-05-07 12:28 | 14.50686 | 121.01193 | 59 ft | 2 kts | 258° |
| 2026-05-07 12:29 | 14.50689 | 121.01204 | 64 ft | 2 kts | 244° |
| 2026-05-07 12:29 | 14.50694 | 121.01215 | 61 ft | 2 kts | 240° |
| 2026-05-07 12:29 | 14.50698 | 121.01223 | 59 ft | 0 kts | 240° |
| 2026-05-07 12:31 | 14.50687 | 121.01202 | 63 ft | 8 kts | 240° |
| 2026-05-07 12:32 | 14.50640 | 121.01134 | 61 ft | 12 kts | 213° |
| 2026-05-07 12:32 | 14.50562 | 121.01122 | 66 ft | 11 kts | 213° |
| 2026-05-07 12:32 | 14.50520 | 121.01048 | 65 ft | 14 kts | 239° |
| 2026-05-07 12:32 | 14.50452 | 121.00933 | 67 ft | 21 kts | 240° |
| 2026-05-07 12:33 | 14.50300 | 121.00654 | 60 ft | 23 kts | 240° |
| 2026-05-07 12:33 | 14.50218 | 121.00509 | 62 ft | 24 kts | 240° |
| 2026-05-07 12:33 | 14.50138 | 121.00360 | 63 ft | 24 kts | 241° |
| 2026-05-07 12:34 | 14.50053 | 121.00215 | 64 ft | 24 kts | 240° |
| 2026-05-07 12:34 | 14.49985 | 121.00090 | 67 ft | 19 kts | 240° |
| 2026-05-07 12:34 | 14.49929 | 120.99989 | 67 ft | 11 kts | 239° |
| 2026-05-07 12:34 | 14.49862 | 120.99969 | 67 ft | 11 kts | 155° |
| 2026-05-07 12:35 | 14.49808 | 121.00022 | 63 ft | 11 kts | 106° |
| 2026-05-07 12:35 | 14.49837 | 121.00101 | 64 ft | 17 kts | 60° |
| 2026-05-07 12:35 | 14.49997 | 121.00391 | 65 ft | 82 kts | 60° |
| 2026-05-07 12:35 | 14.50394 | 121.01101 | 61 ft | 141 kts | 60° |
| 2026-05-07 12:36 | 14.50754 | 121.01747 | 106 ft | 168 kts | 60° |
| 2026-05-07 12:36 | 14.51509 | 121.03117 | 981 ft | 165 kts | 63° |
| 2026-05-07 12:36 | 14.51700 | 121.03463 | 1207 ft | 165 kts | 62° |
| 2026-05-07 12:38 | 14.56603 | 121.12296 | 3533 ft | 256 kts | 60° |
| 2026-05-07 12:38 | 14.57750 | 121.17932 | 5470 ft | 267 kts | 83° |
| 2026-05-07 12:39 | 14.57965 | 121.19847 | 6144 ft | 270 kts | 83° |
| 2026-05-07 12:39 | 14.58186 | 121.21789 | 6755 ft | 275 kts | 83° |
| 2026-05-07 12:39 | 14.58355 | 121.23729 | 7379 ft | 277 kts | 91° |
| 2026-05-07 12:39 | 14.57996 | 121.25682 | 8006 ft | 280 kts | 110° |
| 2026-05-07 12:40 | 14.56994 | 121.27413 | 8644 ft | 285 kts | 130° |
| 2026-05-07 12:40 | 14.56005 | 121.28349 | 9090 ft | 288 kts | 142° |
| 2026-05-07 12:40 | 14.54387 | 121.29578 | 9744 ft | 290 kts | 142° |
| 2026-05-07 12:40 | 14.52182 | 121.31254 | 10288 ft | 305 kts | 141° |
| 2026-05-07 12:41 | 14.50445 | 121.32581 | 10411 ft | 325 kts | 142° |
| 2026-05-07 12:41 | 14.49192 | 121.33538 | 10486 ft | 338 kts | 142° |
| 2026-05-07 12:41 | 14.46618 | 121.35505 | 10977 ft | 348 kts | 141° |
| 2026-05-07 12:41 | 14.44664 | 121.37001 | 11500 ft | 352 kts | 142° |
| 2026-05-07 12:42 | 14.42722 | 121.38493 | 12033 ft | 354 kts | 142° |
| 2026-05-07 12:42 | 14.40735 | 121.40018 | 12579 ft | 357 kts | 142° |
| 2026-05-07 12:42 | 14.38731 | 121.41553 | 13109 ft | 360 kts | 142° |
| 2026-05-07 12:42 | 14.36710 | 121.43100 | 13609 ft | 364 kts | 142° |
| 2026-05-07 12:43 | 14.35334 | 121.44155 | 13912 ft | 366 kts | 142° |
| 2026-05-07 12:43 | 14.33284 | 121.45727 | 14369 ft | 368 kts | 141° |
| 2026-05-07 12:43 | 14.30553 | 121.47823 | 14974 ft | 371 kts | 141° |
| 2026-05-07 12:43 | 14.28474 | 121.49419 | 15436 ft | 374 kts | 142° |
| 2026-05-07 12:44 | 14.26378 | 121.51023 | 15886 ft | 376 kts | 142° |
| 2026-05-07 12:44 | 14.24954 | 121.52110 | 16187 ft | 378 kts | 142° |
| 2026-05-07 12:44 | 14.22142 | 121.54249 | 16775 ft | 382 kts | 142° |
| 2026-05-07 12:44 | 14.20694 | 121.55351 | 17082 ft | 383 kts | 142° |
| 2026-05-07 12:45 | 14.18544 | 121.56985 | 17539 ft | 386 kts | 142° |
| 2026-05-07 12:45 | 14.16376 | 121.58632 | 17984 ft | 388 kts | 142° |
| 2026-05-07 12:45 | 14.14195 | 121.60290 | 18396 ft | 391 kts | 142° |
| 2026-05-07 12:45 | 14.12001 | 121.61959 | 18771 ft | 394 kts | 142° |
| 2026-05-07 12:46 | 14.09791 | 121.63641 | 19161 ft | 396 kts | 142° |
| 2026-05-07 12:46 | 14.07568 | 121.65334 | 19558 ft | 399 kts | 142° |
| 2026-05-07 12:46 | 14.05332 | 121.67042 | 19961 ft | 401 kts | 142° |
| 2026-05-07 12:46 | 14.03083 | 121.68761 | 20355 ft | 404 kts | 142° |
| 2026-05-07 12:47 | 14.00824 | 121.70491 | 20750 ft | 406 kts | 142° |
| 2026-05-07 12:47 | 13.98546 | 121.72233 | 21135 ft | 409 kts | 142° |
| 2026-05-07 12:47 | 13.96255 | 121.73981 | 21529 ft | 412 kts | 142° |
| 2026-05-07 12:47 | 13.93943 | 121.75738 | 21905 ft | 414 kts | 142° |
| 2026-05-07 12:48 | 13.91617 | 121.77503 | 22273 ft | 417 kts | 142° |
| 2026-05-07 12:48 | 13.89279 | 121.79279 | 22630 ft | 419 kts | 142° |
| 2026-05-07 12:48 | 13.86971 | 121.81126 | 22964 ft | 421 kts | 136° |
| 2026-05-07 12:48 | 13.84959 | 121.83312 | 23287 ft | 422 kts | 128° |
| 2026-05-07 12:49 | 13.83074 | 121.85642 | 23592 ft | 425 kts | 129° |
| 2026-05-07 12:49 | 13.81200 | 121.87952 | 23868 ft | 427 kts | 129° |
| 2026-05-07 12:49 | 13.79262 | 121.90329 | 24158 ft | 429 kts | 129° |
| 2026-05-07 12:49 | 13.77366 | 121.92650 | 24448 ft | 431 kts | 129° |
| 2026-05-07 12:50 | 13.75432 | 121.95017 | 24731 ft | 433 kts | 129° |
| 2026-05-07 12:50 | 13.73491 | 121.97393 | 25010 ft | 435 kts | 129° |
| 2026-05-07 12:50 | 13.71516 | 121.99808 | 25300 ft | 437 kts | 129° |
| 2026-05-07 12:50 | 13.69558 | 122.02204 | 25579 ft | 439 kts | 129° |
| 2026-05-07 12:51 | 13.67589 | 122.04613 | 25850 ft | 440 kts | 129° |
| 2026-05-07 12:51 | 13.65615 | 122.07028 | 26131 ft | 442 kts | 129° |
| 2026-05-07 12:51 | 13.63630 | 122.09454 | 26410 ft | 444 kts | 129° |
| 2026-05-07 12:51 | 13.61638 | 122.11891 | 26685 ft | 446 kts | 129° |
| 2026-05-07 12:52 | 13.59636 | 122.14337 | 26961 ft | 448 kts | 130° |
| 2026-05-07 12:52 | 13.57629 | 122.16792 | 27235 ft | 450 kts | 130° |
| 2026-05-07 12:52 | 13.55609 | 122.19260 | 27509 ft | 452 kts | 130° |
| 2026-05-07 12:52 | 13.53582 | 122.21732 | 27775 ft | 454 kts | 130° |
| 2026-05-07 12:53 | 13.51572 | 122.24184 | 28041 ft | 455 kts | 130° |
| 2026-05-07 12:53 | 13.49529 | 122.26680 | 28308 ft | 457 kts | 130° |
| 2026-05-07 12:53 | 13.47478 | 122.29185 | 28556 ft | 459 kts | 130° |
| 2026-05-07 12:53 | 13.45418 | 122.31700 | 28800 ft | 461 kts | 130° |
| 2026-05-07 12:54 | 13.43322 | 122.34261 | 29049 ft | 463 kts | 130° |
| 2026-05-07 12:54 | 13.41248 | 122.36796 | 29301 ft | 465 kts | 130° |
| 2026-05-07 12:54 | 13.39162 | 122.39341 | 29539 ft | 467 kts | 130° |
| 2026-05-07 12:54 | 13.37090 | 122.41860 | 29792 ft | 469 kts | 130° |
| 2026-05-07 12:55 | 13.34983 | 122.44422 | 30027 ft | 471 kts | 130° |
| 2026-05-07 12:55 | 13.32865 | 122.46999 | 30233 ft | 473 kts | 130° |
| 2026-05-07 12:55 | 13.30740 | 122.49583 | 30450 ft | 474 kts | 131° |
| 2026-05-07 12:55 | 13.28614 | 122.52166 | 30744 ft | 473 kts | 131° |
| 2026-05-07 12:56 | 13.26490 | 122.54747 | 31037 ft | 473 kts | 131° |
| 2026-05-07 12:56 | 13.24369 | 122.57328 | 31326 ft | 473 kts | 131° |
| 2026-05-07 12:56 | 13.22249 | 122.59907 | 31610 ft | 473 kts | 131° |
| 2026-05-07 12:56 | 13.20129 | 122.62484 | 31892 ft | 472 kts | 131° |
| 2026-05-07 12:57 | 13.18009 | 122.65057 | 32169 ft | 472 kts | 131° |
| 2026-05-07 12:57 | 13.15889 | 122.67630 | 32447 ft | 472 kts | 131° |
| 2026-05-07 12:57 | 13.13772 | 122.70203 | 32719 ft | 472 kts | 131° |
| 2026-05-07 12:57 | 13.11658 | 122.72775 | 32988 ft | 472 kts | 131° |
| 2026-05-07 12:58 | 13.09544 | 122.75347 | 33257 ft | 471 kts | 132° |
| 2026-05-07 12:58 | 13.07429 | 122.77915 | 33523 ft | 471 kts | 132° |
| 2026-05-07 12:58 | 13.05315 | 122.80480 | 33794 ft | 471 kts | 132° |
| 2026-05-07 12:58 | 13.03200 | 122.83040 | 34036 ft | 470 kts | 132° |
| 2026-05-07 12:59 | 13.01088 | 122.85601 | 34265 ft | 470 kts | 132° |
| 2026-05-07 12:59 | 12.98976 | 122.88162 | 34503 ft | 470 kts | 132° |
| 2026-05-07 12:59 | 12.96868 | 122.90716 | 34742 ft | 469 kts | 132° |
| 2026-05-07 12:59 | 12.94758 | 122.93268 | 34869 ft | 469 kts | 132° |
| 2026-05-07 13:00 | 12.90571 | 122.98342 | 34911 ft | 465 kts | 132° |
| 2026-05-07 13:00 | 12.86397 | 123.03400 | 34902 ft | 464 kts | 132° |
| 2026-05-07 13:01 | 12.82221 | 123.08442 | 34902 ft | 464 kts | 132° |
| 2026-05-07 13:01 | 12.78052 | 123.13483 | 34900 ft | 464 kts | 132° |
| 2026-05-07 13:02 | 12.73884 | 123.18523 | 34905 ft | 464 kts | 132° |
| 2026-05-07 13:02 | 12.69709 | 123.23557 | 34917 ft | 464 kts | 132° |
| 2026-05-07 13:03 | 12.65533 | 123.28589 | 34917 ft | 463 kts | 132° |
| 2026-05-07 13:03 | 12.61364 | 123.33617 | 34921 ft | 463 kts | 132° |
| 2026-05-07 13:04 | 12.57196 | 123.38640 | 34923 ft | 462 kts | 132° |
| 2026-05-07 13:04 | 12.53034 | 123.43654 | 34925 ft | 462 kts | 132° |
| 2026-05-07 13:05 | 12.48878 | 123.48668 | 34924 ft | 461 kts | 132° |
| 2026-05-07 13:05 | 12.44731 | 123.53669 | 34922 ft | 461 kts | 132° |
| 2026-05-07 13:06 | 12.40575 | 123.58660 | 34920 ft | 460 kts | 132° |
| 2026-05-07 13:06 | 12.36093 | 123.63273 | 34918 ft | 456 kts | 146° |
| 2026-05-07 13:07 | 12.30653 | 123.66522 | 34921 ft | 453 kts | 154° |
| 2026-05-07 13:07 | 12.25108 | 123.69565 | 34921 ft | 452 kts | 153° |
| 2026-05-07 13:08 | 12.19570 | 123.72624 | 34917 ft | 452 kts | 153° |
| 2026-05-07 13:08 | 12.14040 | 123.75680 | 34918 ft | 452 kts | 153° |
| 2026-05-07 13:09 | 12.08507 | 123.78727 | 34913 ft | 451 kts | 153° |
| 2026-05-07 13:09 | 12.02976 | 123.81771 | 34913 ft | 451 kts | 153° |
| 2026-05-07 13:10 | 11.97455 | 123.84816 | 34908 ft | 451 kts | 153° |
| 2026-05-07 13:10 | 11.91927 | 123.87854 | 34908 ft | 451 kts | 153° |
| 2026-05-07 13:11 | 11.86408 | 123.90897 | 34906 ft | 451 kts | 153° |
| 2026-05-07 13:11 | 11.80889 | 123.93939 | 34905 ft | 451 kts | 153° |
| 2026-05-07 13:12 | 11.75368 | 123.96974 | 34906 ft | 451 kts | 153° |
| 2026-05-07 13:12 | 11.69847 | 123.99999 | 34906 ft | 450 kts | 153° |
| 2026-05-07 13:13 | 11.64326 | 124.03027 | 34907 ft | 450 kts | 153° |
| 2026-05-07 13:13 | 11.58806 | 124.06058 | 34901 ft | 450 kts | 153° |
| 2026-05-07 13:14 | 11.53290 | 124.09089 | 34901 ft | 451 kts | 153° |
| 2026-05-07 13:14 | 11.47767 | 124.12116 | 34899 ft | 451 kts | 153° |
| 2026-05-07 13:15 | 11.42246 | 124.15148 | 34898 ft | 451 kts | 152° |
| 2026-05-07 13:15 | 11.36719 | 124.18174 | 34897 ft | 451 kts | 152° |
| 2026-05-07 13:16 | 11.31177 | 124.21201 | 34895 ft | 452 kts | 152° |
| 2026-05-07 13:16 | 11.25638 | 124.24235 | 34893 ft | 452 kts | 152° |
| 2026-05-07 13:17 | 11.20128 | 124.27254 | 34888 ft | 453 kts | 152° |
| 2026-05-07 13:17 | 11.14570 | 124.30289 | 34892 ft | 454 kts | 152° |
| 2026-05-07 13:18 | 11.09004 | 124.33338 | 34892 ft | 454 kts | 152° |
| 2026-05-07 13:18 | 11.03434 | 124.36377 | 34895 ft | 455 kts | 152° |
| 2026-05-07 13:19 | 10.97837 | 124.39388 | 34895 ft | 455 kts | 153° |
| 2026-05-07 13:19 | 10.92241 | 124.42382 | 34904 ft | 455 kts | 153° |
| 2026-05-07 13:20 | 10.86646 | 124.45384 | 34904 ft | 454 kts | 152° |
| 2026-05-07 13:20 | 10.81063 | 124.48396 | 34909 ft | 454 kts | 152° |
| 2026-05-07 13:21 | 10.75481 | 124.51404 | 34911 ft | 454 kts | 152° |
| 2026-05-07 13:21 | 10.69911 | 124.54423 | 34912 ft | 453 kts | 152° |
| 2026-05-07 13:22 | 10.64357 | 124.57452 | 34911 ft | 453 kts | 152° |
| 2026-05-07 13:22 | 10.58799 | 124.60477 | 34913 ft | 453 kts | 152° |
| 2026-05-07 13:23 | 10.53243 | 124.63488 | 34912 ft | 453 kts | 152° |
| 2026-05-07 13:23 | 10.47689 | 124.66497 | 34914 ft | 452 kts | 152° |
| 2026-05-07 13:24 | 10.42135 | 124.69510 | 34910 ft | 452 kts | 152° |
| 2026-05-07 13:24 | 10.36579 | 124.72517 | 34910 ft | 453 kts | 152° |
| 2026-05-07 13:25 | 10.31963 | 124.75021 | 34909 ft | 453 kts | 152° |
| 2026-05-07 13:25 | 10.26398 | 124.78031 | 34910 ft | 453 kts | 152° |
| 2026-05-07 13:26 | 10.20834 | 124.81040 | 34910 ft | 453 kts | 152° |
| 2026-05-07 13:26 | 10.15235 | 124.84072 | 34912 ft | 453 kts | 152° |
| 2026-05-07 13:27 | 10.09711 | 124.87060 | 34911 ft | 453 kts | 152° |
| 2026-05-07 13:27 | 10.04151 | 124.90067 | 34912 ft | 453 kts | 152° |
| 2026-05-07 13:28 | 9.98592 | 124.93071 | 34912 ft | 453 kts | 151° |
| 2026-05-07 13:28 | 9.93033 | 124.96075 | 34910 ft | 452 kts | 152° |
| 2026-05-07 13:29 | 9.87481 | 124.99072 | 34912 ft | 452 kts | 152° |
| 2026-05-07 13:29 | 9.81924 | 125.02074 | 34911 ft | 452 kts | 151° |
| 2026-05-07 13:30 | 9.76371 | 125.05068 | 34911 ft | 452 kts | 152° |
| 2026-05-07 13:30 | 9.70810 | 125.08056 | 34904 ft | 452 kts | 152° |
| 2026-05-07 13:31 | 9.65251 | 125.11049 | 34905 ft | 452 kts | 151° |
| 2026-05-07 13:31 | 9.59698 | 125.14048 | 34905 ft | 452 kts | 151° |
| 2026-05-07 13:32 | 9.54131 | 125.17028 | 34907 ft | 453 kts | 152° |
| 2026-05-07 13:32 | 9.48552 | 125.19993 | 34906 ft | 453 kts | 152° |
| 2026-05-07 13:33 | 9.42968 | 125.22958 | 34905 ft | 453 kts | 152° |
| 2026-05-07 13:33 | 9.37387 | 125.25929 | 34905 ft | 454 kts | 152° |
| 2026-05-07 13:34 | 9.29003 | 125.30402 | 34907 ft | 454 kts | 152° |
| 2026-05-07 13:35 | 9.23409 | 125.33383 | 34908 ft | 455 kts | 152° |
| 2026-05-07 13:35 | 9.17810 | 125.36362 | 34910 ft | 455 kts | 152° |
| 2026-05-07 13:36 | 9.12206 | 125.39339 | 34915 ft | 455 kts | 152° |
| 2026-05-07 13:36 | 9.06598 | 125.42316 | 34890 ft | 456 kts | 152° |
| 2026-05-07 13:36 | 9.03790 | 125.43806 | 34659 ft | 455 kts | 152° |
| 2026-05-07 13:37 | 9.00989 | 125.45295 | 34433 ft | 455 kts | 152° |
| 2026-05-07 13:37 | 8.98184 | 125.46782 | 34124 ft | 455 kts | 153° |
| 2026-05-07 13:37 | 8.95261 | 125.48013 | 32980 ft | 457 kts | 162° |
| 2026-05-07 13:37 | 8.92168 | 125.48702 | 31805 ft | 454 kts | 172° |
| 2026-05-07 13:38 | 8.89063 | 125.48998 | 31096 ft | 440 kts | 173° |
| 2026-05-07 13:38 | 8.86080 | 125.49283 | 30624 ft | 421 kts | 173° |
| 2026-05-07 13:38 | 8.83202 | 125.49573 | 30052 ft | 415 kts | 172° |
| 2026-05-07 13:38 | 8.80346 | 125.49871 | 29614 ft | 411 kts | 172° |
| 2026-05-07 13:39 | 8.77509 | 125.50170 | 29138 ft | 409 kts | 172° |
| 2026-05-07 13:39 | 8.74691 | 125.50465 | 28663 ft | 406 kts | 172° |
| 2026-05-07 13:39 | 8.71887 | 125.50755 | 28194 ft | 404 kts | 172° |
| 2026-05-07 13:39 | 8.69093 | 125.51038 | 27739 ft | 403 kts | 172° |
| 2026-05-07 13:40 | 8.66312 | 125.51319 | 27280 ft | 401 kts | 172° |
| 2026-05-07 13:40 | 8.63537 | 125.51596 | 26837 ft | 400 kts | 172° |
| 2026-05-07 13:40 | 8.60768 | 125.51873 | 26394 ft | 399 kts | 172° |
| 2026-05-07 13:40 | 8.58008 | 125.52151 | 25959 ft | 398 kts | 172° |
| 2026-05-07 13:41 | 8.55255 | 125.52431 | 25539 ft | 397 kts | 172° |
| 2026-05-07 13:41 | 8.52512 | 125.52709 | 25115 ft | 396 kts | 172° |
| 2026-05-07 13:41 | 8.49773 | 125.52978 | 24691 ft | 395 kts | 172° |
| 2026-05-07 13:41 | 8.47040 | 125.53230 | 24284 ft | 394 kts | 172° |
| 2026-05-07 13:42 | 8.44312 | 125.53471 | 23860 ft | 393 kts | 173° |
| 2026-05-07 13:42 | 8.41590 | 125.53704 | 23420 ft | 392 kts | 173° |
| 2026-05-07 13:42 | 8.38877 | 125.53937 | 22943 ft | 390 kts | 172° |
| 2026-05-07 13:42 | 8.36179 | 125.54175 | 22494 ft | 388 kts | 172° |
| 2026-05-07 13:43 | 8.33502 | 125.54413 | 22062 ft | 385 kts | 172° |
| 2026-05-07 13:43 | 8.30837 | 125.54653 | 21605 ft | 383 kts | 172° |
| 2026-05-07 13:43 | 8.28192 | 125.54892 | 21153 ft | 381 kts | 172° |
| 2026-05-07 13:43 | 8.25561 | 125.55133 | 20691 ft | 379 kts | 172° |
| 2026-05-07 13:44 | 8.22945 | 125.55373 | 20235 ft | 377 kts | 172° |
| 2026-05-07 13:44 | 8.20337 | 125.55610 | 19774 ft | 376 kts | 172° |
| 2026-05-07 13:44 | 8.17737 | 125.55844 | 19310 ft | 375 kts | 172° |
| 2026-05-07 13:44 | 8.15145 | 125.56075 | 18847 ft | 374 kts | 172° |
| 2026-05-07 13:45 | 8.12560 | 125.56302 | 18387 ft | 373 kts | 172° |
| 2026-05-07 13:45 | 8.09978 | 125.56529 | 17882 ft | 372 kts | 172° |
| 2026-05-07 13:45 | 8.07406 | 125.56756 | 17414 ft | 369 kts | 172° |
| 2026-05-07 13:45 | 8.04856 | 125.56982 | 16953 ft | 367 kts | 172° |
| 2026-05-07 13:46 | 8.02325 | 125.57206 | 16496 ft | 364 kts | 172° |
| 2026-05-07 13:46 | 7.99813 | 125.57429 | 16043 ft | 361 kts | 172° |
| 2026-05-07 13:46 | 7.97323 | 125.57655 | 15593 ft | 357 kts | 171° |
| 2026-05-07 13:46 | 7.94902 | 125.58124 | 15147 ft | 353 kts | 165° |
| 2026-05-07 13:47 | 7.92513 | 125.58663 | 14705 ft | 351 kts | 165° |
| 2026-05-07 13:47 | 7.90139 | 125.59198 | 14256 ft | 349 kts | 165° |
| 2026-05-07 13:47 | 7.87775 | 125.59728 | 13816 ft | 347 kts | 165° |
| 2026-05-07 13:47 | 7.85429 | 125.60255 | 13351 ft | 344 kts | 165° |
| 2026-05-07 13:48 | 7.83132 | 125.60771 | 12917 ft | 341 kts | 165° |
| 2026-05-07 13:48 | 7.80822 | 125.61288 | 12488 ft | 339 kts | 165° |
| 2026-05-07 13:48 | 7.78532 | 125.61800 | 12067 ft | 336 kts | 165° |
| 2026-05-07 13:48 | 7.76260 | 125.62309 | 11644 ft | 333 kts | 165° |
| 2026-05-07 13:49 | 7.74006 | 125.62813 | 11244 ft | 330 kts | 165° |
| 2026-05-07 13:49 | 7.71777 | 125.63310 | 10891 ft | 326 kts | 165° |
| 2026-05-07 13:49 | 7.69565 | 125.63803 | 10488 ft | 325 kts | 165° |
| 2026-05-07 13:49 | 7.67372 | 125.64293 | 10182 ft | 319 kts | 165° |
| 2026-05-07 13:50 | 7.65246 | 125.64767 | 10074 ft | 307 kts | 165° |
| 2026-05-07 13:50 | 7.63193 | 125.65224 | 9898 ft | 298 kts | 165° |
| 2026-05-07 13:50 | 7.61174 | 125.65674 | 9507 ft | 298 kts | 165° |